As Victoria — A8SO7 — position and weather

sailwx.info

Track history (hours):
 
Tides and Currents Weather Stations Pressure Air Temp Water Temp Dewpoint Dewpoint Depression Visibility Wind Speed Wind Dir Waves Ship Positions

As Victoria

Last reported at 2016-Sep-24 03:33 UTC. Time now 2016-Sep-26 10:31 UTC.
Position N 48°50' W 005°51'.

Length 190 m; draft 11.5 m.

MMSI: 636091769.

Date/timePositionNaut miles runAvg speedWind from/ knotsBaromVisibWave heightAir tempDewpointWater temp
2016-Sep-24 03:33N 48°50' W 005°51'1110.6
2016-Sep-24 02:33N 48°57' W 005°39'1111.1
2016-Sep-24 01:33N 49°03' W 005°24'1111.0
2016-Sep-24 00:33N 49°08' W 005°09'7510.8
2016-Sep-23 17:33N 49°46' W 003°29'1212.4
2016-Sep-23 16:33N 49°52' W 003°13'1211.9
2016-Sep-23 15:33N 49°58' W 002°57'10411.2
2016-Sep-23 06:14N 50°27' W 000°21'2112.6
2016-Sep-23 04:33N 50°32' E 000°12'4410.9
2016-Sep-23 00:32N 50°54' E 001°11'1312.7
2016-Sep-22 23:33N 51°03' E 001°25'3611.9
2016-Sep-22 20:33N 51°30' E 002°02'45311.0
2016-Sep-21 03:21N 57°47' E 009°15'1210.5
2016-Sep-21 02:16N 57°53' E 009°34'40 4.5
2016-Sep-20 17:27N 57°39' E 010°44'1 0.5
2016-Sep-20 14:33N 57°40' E 010°46'8 8.2
2016-Sep-20 13:33N 57°40' E 011°02'3210.8
2016-Sep-20 10:33N 57°13' E 011°36'2211.0
2016-Sep-20 08:33N 56°52' E 011°49'9 9.5
2016-Sep-20 07:33N 56°43' E 011°49'5410.6
2016-Sep-20 02:31N 55°57' E 010°60'3811.2
2016-Sep-19 23:07N 55°19' E 011°03'3911.1
2016-Sep-19 19:33N 54°40' E 010°50'1110.8
2016-Sep-19 18:33N 54°36' E 011°07'2311.6
2016-Sep-19 16:33N 54°27' E 011°44'19 9.5
2016-Sep-19 14:33N 54°34' E 012°15'1111.3
2016-Sep-19 13:33N 54°41' E 012°29'  
2016-Sep-16 15:28N 54°29' E 013°35'0 0.0
2016-Sep-16 09:28N 54°29' E 013°35'0 0.0
2016-Sep-16 07:25N 54°29' E 013°35'0 0.0
2016-Sep-16 03:31N 54°29' E 013°35'0 0.0
2016-Sep-16 02:28N 54°29' E 013°35'0 0.0
2016-Sep-15 20:25N 54°29' E 013°35'0 0.0
2016-Sep-15 04:31N 54°29' E 013°35'0 0.0
2016-Sep-15 03:31N 54°29' E 013°35'0 0.0
2016-Sep-15 01:31N 54°29' E 013°35'0 0.0
2016-Sep-14 22:22N 54°29' E 013°35'0 0.0
2016-Sep-14 17:31N 54°29' E 013°35'0 0.0
2016-Sep-14 13:16N 54°29' E 013°35'  
Track history (hours):
 
Tides and Currents Weather Stations Pressure Air Temp Water Temp Dewpoint Dewpoint Depression Visibility Wind Speed Wind Dir Waves Ship Positions

As Victoria

Last reported at 2016-Sep-24 03:33 UTC. Time now 2016-Sep-26 10:31 UTC.
Position N 48°50' W 005°51'.

Length 190 m; draft 11.5 m.

MMSI: 636091769.

Date/timePositionNaut miles runAvg speedWind from/ knotsBaromVisibWave heightAir tempDewpointWater temp
2016-Sep-24 03:33N 48°50' W 005°51'1110.6
2016-Sep-24 02:33N 48°57' W 005°39'1111.1
2016-Sep-24 01:33N 49°03' W 005°24'1111.0
2016-Sep-24 00:33N 49°08' W 005°09'7510.8
2016-Sep-23 17:33N 49°46' W 003°29'1212.4
2016-Sep-23 16:33N 49°52' W 003°13'1211.9
2016-Sep-23 15:33N 49°58' W 002°57'10411.2
2016-Sep-23 06:14N 50°27' W 000°21'2112.6
2016-Sep-23 04:33N 50°32' E 000°12'4410.9
2016-Sep-23 00:32N 50°54' E 001°11'1312.7
2016-Sep-22 23:33N 51°03' E 001°25'3611.9
2016-Sep-22 20:33N 51°30' E 002°02'45311.0
2016-Sep-21 03:21N 57°47' E 009°15'1210.5
2016-Sep-21 02:16N 57°53' E 009°34'40 4.5
2016-Sep-20 17:27N 57°39' E 010°44'1 0.5
2016-Sep-20 14:33N 57°40' E 010°46'8 8.2
2016-Sep-20 13:33N 57°40' E 011°02'3210.8
2016-Sep-20 10:33N 57°13' E 011°36'2211.0
2016-Sep-20 08:33N 56°52' E 011°49'9 9.5
2016-Sep-20 07:33N 56°43' E 011°49'5410.6
2016-Sep-20 02:31N 55°57' E 010°60'3811.2
2016-Sep-19 23:07N 55°19' E 011°03'3911.1
2016-Sep-19 19:33N 54°40' E 010°50'1110.8
2016-Sep-19 18:33N 54°36' E 011°07'2311.6
2016-Sep-19 16:33N 54°27' E 011°44'19 9.5
2016-Sep-19 14:33N 54°34' E 012°15'1111.3
2016-Sep-19 13:33N 54°41' E 012°29'  
2016-Sep-16 15:28N 54°29' E 013°35'0 0.0
2016-Sep-16 09:28N 54°29' E 013°35'0 0.0
2016-Sep-16 07:25N 54°29' E 013°35'0 0.0
2016-Sep-16 03:31N 54°29' E 013°35'0 0.0
2016-Sep-16 02:28N 54°29' E 013°35'0 0.0
2016-Sep-15 20:25N 54°29' E 013°35'0 0.0
2016-Sep-15 04:31N 54°29' E 013°35'0 0.0
2016-Sep-15 03:31N 54°29' E 013°35'0 0.0
2016-Sep-15 01:31N 54°29' E 013°35'0 0.0
2016-Sep-14 22:22N 54°29' E 013°35'0 0.0
2016-Sep-14 17:31N 54°29' E 013°35'0 0.0
2016-Sep-14 13:16N 54°29' E 013°35'  

Dump ship's entire track history